KGEY/GEY METAR and TAF weather

Enter ICAO airport designator
Station Type Date Time Source
KGEY METAR 2020/03/31 06:53 UTC NOAA

KGEY 310653Z AUTO 14004KT 10SM CLR 06/M06 A2988 RMK AO2 SLP116 T00561056 401611039


Station Type Date Time Source
KGEY Decoded METAR 2020/03/31 06:53 UTC NOAA

SOUTH BIG HORN COUNTY AIRPORT , WY, United States (KGEY) 44-31N 108-05W 1191M
Mar 31, 2020 - 02:53 AM EDT / 2020.03.31 0653 UTC
Wind: from the SE (140 degrees) at 5 MPH (4 KT):0
Visibility: 10 mile(s):0
Sky conditions: clear
Temperature: 42.1 F (5.6 C)
Dew Point: 21.9 F (-5.6 C)
Relative Humidity: 44%
Pressure (altimeter): 29.88 in. Hg (1011 hPa)
ob: KGEY 310653Z AUTO 14004KT 10SM CLR 06/M06 A2988 RMK AO2 SLP116 T00561056 401611039
cycle: 7

Station Type Date Time Source
KGEY TAF UTC NOAA

Error!

Example: see airport list